createdAt,value
2018-08-24T00:00:20.344Z,19.18
2018-08-24T00:02:52.354Z,19.28
2018-08-24T00:05:24.335Z,19.32
2018-08-24T00:07:56.306Z,19.32
2018-08-24T00:10:28.262Z,19.30
2018-08-24T00:13:00.256Z,19.31
2018-08-24T00:15:32.283Z,19.26
2018-08-24T00:18:04.263Z,19.21
2018-08-24T00:20:36.247Z,19.24
2018-08-24T00:23:08.217Z,19.25
2018-08-24T00:25:40.190Z,19.21
2018-08-24T00:28:12.168Z,19.18
2018-08-24T00:30:44.146Z,19.11
2018-08-24T00:33:16.134Z,19.09
2018-08-24T00:35:49.276Z,19.11
2018-08-24T00:38:21.386Z,19.08
2018-08-24T00:40:56.752Z,19.08
2018-08-24T00:43:28.841Z,19.01
2018-08-24T00:46:00.948Z,18.98
2018-08-24T00:48:33.088Z,18.89
2018-08-24T00:51:05.244Z,18.92
2018-08-24T00:53:38.940Z,18.94
2018-08-24T00:56:11.504Z,18.96
2018-08-24T00:58:43.636Z,18.95
2018-08-24T01:01:15.764Z,19.01
2018-08-24T01:03:47.874Z,19.05
2018-08-24T01:06:23.556Z,18.98
2018-08-24T01:08:55.617Z,18.97
2018-08-24T01:12:35.983Z,19.06
2018-08-24T01:15:08.116Z,19.00
2018-08-24T01:17:45.921Z,19.04
2018-08-24T01:20:22.436Z,19.04
2018-08-24T01:22:54.550Z,19.07
2018-08-24T01:25:26.648Z,19.00
2018-08-24T01:27:58.743Z,19.10
2018-08-24T01:30:30.880Z,19.08
2018-08-24T01:33:03.021Z,19.07
2018-08-24T01:35:35.207Z,19.00
2018-08-24T01:38:07.470Z,19.06
2018-08-24T01:40:39.661Z,18.98
2018-08-24T01:43:11.807Z,18.98
2018-08-24T01:45:43.928Z,18.91
2018-08-24T01:48:16.088Z,18.87
2018-08-24T01:50:48.151Z,18.86
2018-08-24T01:53:20.268Z,18.73
2018-08-24T01:55:52.430Z,18.68
2018-08-24T01:58:24.528Z,18.67
2018-08-24T02:00:56.585Z,18.69
2018-08-24T02:03:28.675Z,18.61
2018-08-24T02:06:05.874Z,18.61
2018-08-24T02:08:37.997Z,18.57
2018-08-24T02:11:15.735Z,18.50
2018-08-24T02:13:53.587Z,18.39
2018-08-24T02:16:30.232Z,18.39
2018-08-24T02:19:08.672Z,18.36
2018-08-24T02:21:46.665Z,18.27
2018-08-24T02:24:18.737Z,18.24
2018-08-24T02:26:50.825Z,18.16
2018-08-24T02:29:22.893Z,18.17
2018-08-24T02:31:54.972Z,18.10
2018-08-24T02:34:27.056Z,17.99
2018-08-24T02:36:59.187Z,17.98
2018-08-24T02:39:31.265Z,17.94
2018-08-24T02:42:03.356Z,17.83
2018-08-24T02:44:35.468Z,17.94
2018-08-24T02:47:07.564Z,18.02
2018-08-24T02:49:39.825Z,17.92
2018-08-24T02:52:11.904Z,17.94
2018-08-24T02:54:44.814Z,17.91
2018-08-24T02:57:16.921Z,17.98
2018-08-24T02:59:49.063Z,17.93
2018-08-24T03:02:21.152Z,17.87
2018-08-24T03:04:53.293Z,17.67
2018-08-24T03:07:25.694Z,17.69
2018-08-24T03:09:57.758Z,17.66
2018-08-24T03:12:29.819Z,17.67
2018-08-24T03:15:01.911Z,17.63
2018-08-24T03:17:39.691Z,17.59
2018-08-24T03:20:11.852Z,17.60
2018-08-24T03:22:44.051Z,17.55
2018-08-24T03:25:16.217Z,17.58
2018-08-24T03:27:48.342Z,17.55
2018-08-24T03:30:20.430Z,17.43
2018-08-24T03:32:52.506Z,17.43
2018-08-24T03:35:24.581Z,17.34
2018-08-24T03:37:56.800Z,17.33
2018-08-24T03:40:28.926Z,17.43
2018-08-24T03:43:01.168Z,17.42
2018-08-24T03:45:33.244Z,17.37
2018-08-24T03:48:05.376Z,17.30
2018-08-24T03:50:37.464Z,17.29
2018-08-24T03:53:09.641Z,17.35
2018-08-24T03:55:42.836Z,17.36
2018-08-24T03:58:15.003Z,17.39
2018-08-24T04:00:47.180Z,17.36
2018-08-24T04:03:19.347Z,17.44
2018-08-24T04:05:53.538Z,17.43
2018-08-24T04:08:27.440Z,17.51
2018-08-24T04:10:59.597Z,17.51
2018-08-24T04:13:31.701Z,17.59
2018-08-24T04:16:03.793Z,17.69
2018-08-24T04:18:35.924Z,17.76
2018-08-24T04:21:08.012Z,17.88
2018-08-24T04:23:40.169Z,17.91
2018-08-24T04:26:12.496Z,17.97
2018-08-24T04:28:44.570Z,17.93
2018-08-24T04:31:16.727Z,18.02
2018-08-24T04:33:48.830Z,18.00
2018-08-24T04:36:20.927Z,17.95
2018-08-24T04:38:53.065Z,17.99
2018-08-24T04:41:25.336Z,17.97
2018-08-24T04:43:57.420Z,18.01
2018-08-24T04:46:29.499Z,17.94
2018-08-24T04:49:01.587Z,17.96
2018-08-24T04:51:33.753Z,17.96
2018-08-24T04:54:05.875Z,18.02
2018-08-24T04:56:38.040Z,18.05
2018-08-24T04:59:10.100Z,18.14
2018-08-24T05:01:42.165Z,18.15
2018-08-24T05:04:14.237Z,18.15
2018-08-24T05:06:46.298Z,18.19
2018-08-24T05:09:18.334Z,18.15
2018-08-24T05:11:50.463Z,18.09
2018-08-24T05:14:22.574Z,18.06
2018-08-24T05:16:54.666Z,18.05
2018-08-24T05:19:26.774Z,18.06
2018-08-24T05:21:58.866Z,18.06
2018-08-24T05:24:30.915Z,17.93
2018-08-24T05:27:02.978Z,17.89
2018-08-24T05:29:35.040Z,17.88
2018-08-24T05:32:07.137Z,17.73
2018-08-24T05:34:39.205Z,17.78
2018-08-24T05:37:11.279Z,17.88
2018-08-24T05:39:44.399Z,17.85
2018-08-24T05:42:16.512Z,17.89
2018-08-24T05:44:48.579Z,17.91
2018-08-24T05:47:20.687Z,17.88
2018-08-24T05:49:52.764Z,17.88
2018-08-24T05:52:24.907Z,17.93
2018-08-24T05:54:57.133Z,17.95
2018-08-24T05:57:29.262Z,17.95
2018-08-24T06:00:01.380Z,17.93
2018-08-24T06:02:35.541Z,17.98
2018-08-24T06:05:08.679Z,17.98
2018-08-24T06:07:40.902Z,18.00
2018-08-24T06:10:12.971Z,18.08
2018-08-24T06:12:46.092Z,18.20
2018-08-24T06:15:18.362Z,18.25
2018-08-24T06:17:52.692Z,18.26
2018-08-24T06:20:24.899Z,18.48
2018-08-24T06:22:57.016Z,18.53
2018-08-24T06:25:29.064Z,18.56
2018-08-24T06:28:01.355Z,18.79
2018-08-24T06:30:33.461Z,18.86
2018-08-24T06:33:05.611Z,18.89
2018-08-24T06:35:37.803Z,18.89
2018-08-24T06:38:10.076Z,18.95
2018-08-24T06:40:42.346Z,19.04
2018-08-24T06:43:14.511Z,19.06
2018-08-24T06:45:46.717Z,19.19
2018-08-24T06:48:18.964Z,19.37
2018-08-24T06:50:51.159Z,19.48
2018-08-24T06:53:23.437Z,19.44
2018-08-24T06:55:55.411Z,19.41
2018-08-24T06:58:27.728Z,19.22
2018-08-24T07:00:59.889Z,19.12
2018-08-24T07:03:31.964Z,18.93
2018-08-24T07:06:04.340Z,19.03
2018-08-24T07:08:36.455Z,19.31
2018-08-24T07:11:08.568Z,18.98
2018-08-24T07:13:40.693Z,19.76
2018-08-24T07:16:12.918Z,19.97
2018-08-24T07:18:45.013Z,20.18
2018-08-24T07:21:17.196Z,20.48
2018-08-24T07:23:49.353Z,20.66
2018-08-24T07:26:21.516Z,20.72
2018-08-24T07:28:53.622Z,20.63
2018-08-24T07:31:25.716Z,20.33
2018-08-24T07:33:57.850Z,20.17
2018-08-24T07:36:29.936Z,20.11
2018-08-24T07:39:02.087Z,19.93
2018-08-24T07:41:34.365Z,19.72
2018-08-24T07:44:06.646Z,19.48
2018-08-24T07:46:38.837Z,19.40
2018-08-24T07:49:10.998Z,19.38
2018-08-24T07:51:43.091Z,19.24
2018-08-24T07:54:15.159Z,19.10
2018-08-24T07:56:47.264Z,19.10
2018-08-24T07:59:19.349Z,19.09
2018-08-24T08:01:51.416Z,18.97
2018-08-24T08:04:23.539Z,19.01
2018-08-24T08:06:55.608Z,19.00
2018-08-24T08:09:27.754Z,18.95
2018-08-24T08:12:00.068Z,19.01
2018-08-24T08:14:32.159Z,19.08
2018-08-24T08:17:04.200Z,19.14
2018-08-24T08:19:36.284Z,19.24
2018-08-24T08:22:08.941Z,19.39
2018-08-24T08:24:41.019Z,19.48
2018-08-24T08:27:13.135Z,19.78
2018-08-24T08:29:50.888Z,19.92
2018-08-24T08:32:22.990Z,19.81
2018-08-24T08:34:55.062Z,19.76
2018-08-24T08:37:27.128Z,19.75
2018-08-24T08:40:01.143Z,19.77
2018-08-24T08:42:33.179Z,19.74
2018-08-24T08:45:05.319Z,19.73
2018-08-24T08:47:37.372Z,19.79
2018-08-24T08:50:09.442Z,19.92
2018-08-24T08:52:41.567Z,20.08
2018-08-24T08:55:13.604Z,20.04
2018-08-24T08:57:45.743Z,19.98
2018-08-24T09:00:17.888Z,19.92
2018-08-24T09:02:49.954Z,19.85
2018-08-24T09:05:22.060Z,19.75
2018-08-24T09:07:54.158Z,19.82
2018-08-24T09:10:26.227Z,19.86
2018-08-24T09:12:58.292Z,19.72
2018-08-24T09:15:31.423Z,19.63
2018-08-24T09:18:09.203Z,19.58
2018-08-24T09:20:47.126Z,19.70
2018-08-24T09:23:24.825Z,19.76
2018-08-24T09:26:02.784Z,19.69
2018-08-24T09:28:36.567Z,19.76
2018-08-24T09:31:14.797Z,19.73
2018-08-24T09:33:46.968Z,19.67
2018-08-24T09:36:20.067Z,19.75
2018-08-24T09:38:52.644Z,19.73
2018-08-24T09:41:24.847Z,19.81
2018-08-24T09:43:58.868Z,19.83
2018-08-24T09:46:36.620Z,19.71
2018-08-24T09:49:14.530Z,19.74
2018-08-24T09:51:46.625Z,19.66
2018-08-24T09:54:18.847Z,19.62
2018-08-24T09:56:50.977Z,19.58
2018-08-24T09:59:23.032Z,19.52
2018-08-24T10:02:00.720Z,19.57
2018-08-24T10:04:38.487Z,19.73
2018-08-24T10:07:16.235Z,19.73
2018-08-24T10:09:48.262Z,19.72
2018-08-24T10:12:20.456Z,19.73
2018-08-24T10:14:52.530Z,19.95
2018-08-24T10:17:25.840Z,20.35
2018-08-24T10:19:57.935Z,20.65
2018-08-24T10:22:30.584Z,20.87
2018-08-24T10:25:03.061Z,21.42
2018-08-24T10:27:35.190Z,21.43
2018-08-24T10:30:07.287Z,21.60
2018-08-24T10:32:39.400Z,21.72
2018-08-24T10:35:11.498Z,21.84
2018-08-24T10:37:43.578Z,21.70
2018-08-24T10:40:15.685Z,21.61
2018-08-24T10:42:47.761Z,21.78
2018-08-24T10:45:19.835Z,22.01
2018-08-24T10:47:51.919Z,22.20
2018-08-24T10:50:24.024Z,22.45
2018-08-24T10:52:56.123Z,22.30
2018-08-24T10:55:28.533Z,22.46
2018-08-24T10:58:00.604Z,22.25
2018-08-24T11:00:33.072Z,22.40
2018-08-24T11:03:04.909Z,22.54
2018-08-24T11:05:37.001Z,22.98
2018-08-24T11:08:09.119Z,22.80
2018-08-24T11:10:41.238Z,22.75
2018-08-24T11:13:13.367Z,22.30
2018-08-24T11:15:48.652Z,22.37
2018-08-24T11:18:20.736Z,22.48
2018-08-24T11:20:52.874Z,22.33
2018-08-24T11:23:24.974Z,21.85
2018-08-24T11:25:57.061Z,22.01
2018-08-24T11:28:29.139Z,21.97
2018-08-24T11:31:01.288Z,21.58
2018-08-24T11:33:33.346Z,21.55
2018-08-24T11:36:05.342Z,21.70
2018-08-24T11:38:37.334Z,21.80
2018-08-24T11:41:10.011Z,22.00
2018-08-24T11:43:42.125Z,22.30
2018-08-24T11:46:14.227Z,22.00
2018-08-24T11:48:46.376Z,22.34
2018-08-24T11:51:18.461Z,22.28
2018-08-24T11:53:50.580Z,22.22
2018-08-24T11:56:22.694Z,22.78
2018-08-24T11:58:54.879Z,23.19
2018-08-24T12:01:27.022Z,23.19
2018-08-24T12:03:59.115Z,23.34
2018-08-24T12:06:31.254Z,22.94
2018-08-24T12:09:05.131Z,23.21
2018-08-24T12:11:37.252Z,23.54
2018-08-24T12:14:09.397Z,24.04
2018-08-24T12:16:41.479Z,24.05
2018-08-24T12:19:13.539Z,24.05
2018-08-24T12:21:45.712Z,24.40
2018-08-24T12:24:17.839Z,24.23
2018-08-24T12:26:49.834Z,24.52
2018-08-24T12:29:21.982Z,24.53
2018-08-24T12:31:54.056Z,24.77
2018-08-24T12:34:26.208Z,24.66
2018-08-24T12:36:58.297Z,25.06
2018-08-24T12:39:30.386Z,24.90
2018-08-24T12:42:02.452Z,25.05
2018-08-24T12:44:34.557Z,25.04
2018-08-24T12:47:06.780Z,25.58
2018-08-24T12:49:38.886Z,25.85
2018-08-24T12:52:11.146Z,26.44
2018-08-24T12:54:43.158Z,27.42
2018-08-24T12:57:15.264Z,26.52
2018-08-24T12:59:47.470Z,25.91
2018-08-24T13:02:19.461Z,25.37
2018-08-24T13:04:51.522Z,24.98
2018-08-24T13:07:23.620Z,25.14
2018-08-24T13:09:55.689Z,25.17
2018-08-24T13:12:27.723Z,25.67
2018-08-24T13:14:59.772Z,25.51
2018-08-24T13:17:31.852Z,26.24
2018-08-24T13:20:03.973Z,27.46
2018-08-24T13:22:36.053Z,28.12
2018-08-24T13:25:08.088Z,29.20
2018-08-24T13:27:40.168Z,29.67
2018-08-24T13:30:12.238Z,31.34
2018-08-24T13:32:44.375Z,30.64
2018-08-24T13:35:16.510Z,29.53
2018-08-24T13:37:48.653Z,28.84
2018-08-24T13:40:20.697Z,27.63
2018-08-24T13:42:52.776Z,25.94
2018-08-24T13:45:24.874Z,25.20
2018-08-24T13:47:57.152Z,24.70
2018-08-24T13:50:29.204Z,24.23
2018-08-24T13:53:01.453Z,23.96
2018-08-24T13:55:33.478Z,23.83
2018-08-24T13:58:05.598Z,23.45
2018-08-24T14:00:38.246Z,23.13
2018-08-24T14:03:10.316Z,22.94
2018-08-24T14:05:42.356Z,22.96
2018-08-24T14:08:14.444Z,22.61
2018-08-24T14:10:47.937Z,22.27
2018-08-24T14:13:19.999Z,21.91
2018-08-24T14:15:52.034Z,21.31
2018-08-24T14:18:24.098Z,20.86
2018-08-24T14:20:56.258Z,20.56
2018-08-24T14:23:28.219Z,19.80
2018-08-24T14:26:00.291Z,18.84
2018-08-24T14:28:32.341Z,18.45
2018-08-24T14:31:04.508Z,18.39
2018-08-24T14:33:36.584Z,18.77
2018-08-24T14:36:08.605Z,19.18
2018-08-24T14:38:40.671Z,19.56
2018-08-24T14:41:12.713Z,20.04
2018-08-24T14:43:44.778Z,20.38
2018-08-24T14:46:16.823Z,20.70
2018-08-24T14:48:48.869Z,20.81
2018-08-24T14:51:20.944Z,21.46
2018-08-24T14:53:53.135Z,21.26
2018-08-24T14:56:25.215Z,21.50
2018-08-24T14:58:57.288Z,22.97
2018-08-24T15:01:29.516Z,24.85
2018-08-24T15:04:01.564Z,26.54
2018-08-24T15:06:34.787Z,25.18
2018-08-24T15:09:08.241Z,23.97
2018-08-24T15:11:40.311Z,23.86
2018-08-24T15:14:12.404Z,23.57
2018-08-24T15:16:44.488Z,23.76
2018-08-24T15:19:16.555Z,23.21
2018-08-24T15:21:48.587Z,22.57
2018-08-24T15:24:21.714Z,22.30
2018-08-24T15:26:53.797Z,22.12
2018-08-24T15:29:25.998Z,21.79
2018-08-24T15:31:58.020Z,21.78
2018-08-24T15:34:30.202Z,21.81
2018-08-24T15:37:02.261Z,21.16
2018-08-24T15:39:34.339Z,21.31
2018-08-24T15:42:06.449Z,21.30
2018-08-24T15:44:38.552Z,21.13
2018-08-24T15:47:11.056Z,20.97
2018-08-24T15:49:43.098Z,20.89
2018-08-24T15:52:15.168Z,20.66
2018-08-24T15:54:47.262Z,20.59
2018-08-24T15:57:19.301Z,20.41
2018-08-24T15:59:51.422Z,20.42
2018-08-24T16:02:23.497Z,20.42
2018-08-24T16:04:55.572Z,20.30
2018-08-24T16:07:27.723Z,20.29
2018-08-24T16:09:59.829Z,20.18
2018-08-24T16:12:31.875Z,20.17
2018-08-24T16:15:04.081Z,20.40
2018-08-24T16:17:36.154Z,20.71
2018-08-24T16:20:08.320Z,20.60
2018-08-24T16:22:40.387Z,20.72
2018-08-24T16:25:12.681Z,20.61
2018-08-24T16:27:44.884Z,20.52
2018-08-24T16:30:17.032Z,20.53
2018-08-24T16:32:49.126Z,20.57
2018-08-24T16:35:21.213Z,20.76
2018-08-24T16:37:53.278Z,20.66
2018-08-24T16:40:25.495Z,20.43
2018-08-24T16:42:57.596Z,20.54
2018-08-24T16:45:30.684Z,20.40
2018-08-24T16:48:02.780Z,20.41
2018-08-24T16:50:34.862Z,20.55
2018-08-24T16:53:07.016Z,20.70
2018-08-24T16:55:40.337Z,20.74
2018-08-24T16:58:12.509Z,20.62
2018-08-24T17:00:44.614Z,20.32
2018-08-24T17:03:16.730Z,20.38
2018-08-24T17:05:48.875Z,20.26
2018-08-24T17:08:21.056Z,20.23
2018-08-24T17:10:53.127Z,20.13
2018-08-24T17:13:25.213Z,20.02
2018-08-24T17:15:57.524Z,19.98
2018-08-24T17:18:29.633Z,19.89
2018-08-24T17:21:01.796Z,19.73
2018-08-24T17:23:34.891Z,19.55
2018-08-24T17:26:06.960Z,19.36
2018-08-24T17:28:39.057Z,19.28
2018-08-24T17:31:11.086Z,19.09
2018-08-24T17:33:43.172Z,19.03
2018-08-24T17:36:15.231Z,18.83
2018-08-24T17:38:47.260Z,18.72
2018-08-24T17:41:19.343Z,18.61
2018-08-24T17:43:51.467Z,18.53
2018-08-24T17:46:23.583Z,18.40
2018-08-24T17:48:55.717Z,18.27
2018-08-24T17:51:27.865Z,18.12
2018-08-24T17:53:59.979Z,17.98
2018-08-24T17:56:32.171Z,17.89
2018-08-24T17:59:04.249Z,17.76
2018-08-24T18:01:36.274Z,17.67
2018-08-24T18:04:08.347Z,17.57
2018-08-24T18:06:40.404Z,17.51
2018-08-24T18:09:12.501Z,17.39
2018-08-24T18:11:44.588Z,17.26
2018-08-24T18:14:16.739Z,17.11
2018-08-24T18:16:48.844Z,17.04
2018-08-24T18:19:20.936Z,16.91
2018-08-24T18:21:53.001Z,16.88
2018-08-24T18:24:25.203Z,16.81
2018-08-24T18:26:57.329Z,16.76
2018-08-24T18:29:29.451Z,16.74
2018-08-24T18:32:01.530Z,16.75
2018-08-24T18:34:33.596Z,16.69
2018-08-24T18:37:05.708Z,16.85
2018-08-24T18:39:37.738Z,16.97
2018-08-24T18:42:09.830Z,16.96
2018-08-24T18:44:41.901Z,16.97
2018-08-24T18:47:13.961Z,16.95
2018-08-24T18:49:46.002Z,16.87
2018-08-24T18:52:18.059Z,16.78
2018-08-24T18:54:50.198Z,16.76
2018-08-24T18:57:22.226Z,16.73
2018-08-24T18:59:54.246Z,16.66
2018-08-24T19:02:26.532Z,16.55
2018-08-24T19:04:58.604Z,16.66
2018-08-24T19:07:30.722Z,16.70
2018-08-24T19:10:02.864Z,16.78
2018-08-24T19:12:34.945Z,16.79
2018-08-24T19:15:07.224Z,16.78
2018-08-24T19:17:45.164Z,16.73
2018-08-24T19:20:23.101Z,16.80
2018-08-24T19:22:55.270Z,16.84
2018-08-24T19:25:27.336Z,16.91
2018-08-24T19:28:06.059Z,16.91
2018-08-24T19:30:38.132Z,16.96
2018-08-24T19:33:13.156Z,16.94
2018-08-24T19:35:47.727Z,16.92
2018-08-24T19:38:19.878Z,16.91
2018-08-24T19:40:57.645Z,16.88
2018-08-24T19:43:30.999Z,16.88
2018-08-24T19:46:03.143Z,16.88
2018-08-24T19:48:40.873Z,16.88
2018-08-24T19:51:13.182Z,16.85
2018-08-24T19:53:45.260Z,16.85
2018-08-24T19:56:17.556Z,16.82
2018-08-24T19:58:55.495Z,16.84
2018-08-24T20:01:27.660Z,16.83
2018-08-24T20:04:00.033Z,16.82
2018-08-24T20:06:37.947Z,16.72
2018-08-24T20:09:17.314Z,16.72
2018-08-24T20:11:50.803Z,16.68
2018-08-24T20:14:28.463Z,16.69
2018-08-24T20:17:34.557Z,16.76
2018-08-24T20:20:06.740Z,16.69
2018-08-24T20:22:38.799Z,16.65
2018-08-24T20:25:10.880Z,16.70
2018-08-24T20:27:43.003Z,16.67
2018-08-24T20:30:15.129Z,16.65
2018-08-24T20:32:47.253Z,16.57
2018-08-24T20:35:19.437Z,16.57
2018-08-24T20:37:51.585Z,16.51
2018-08-24T20:40:23.760Z,16.47
2018-08-24T20:42:55.903Z,16.59
2018-08-24T20:45:28.005Z,16.59
2018-08-24T20:48:00.555Z,16.59
2018-08-24T20:50:32.739Z,16.58
2018-08-24T20:53:04.810Z,16.45
2018-08-24T20:55:36.964Z,16.38
2018-08-24T20:58:09.050Z,16.31
2018-08-24T21:00:41.155Z,16.26
2018-08-24T21:03:13.264Z,16.34
2018-08-24T21:05:45.457Z,16.26
2018-08-24T21:08:17.552Z,16.28
2018-08-24T21:10:49.709Z,16.30
2018-08-24T21:13:21.808Z,16.27
2018-08-24T21:15:53.924Z,16.18
2018-08-24T21:18:27.070Z,16.20
2018-08-24T21:20:59.251Z,16.15
2018-08-24T21:23:31.429Z,16.12
2018-08-24T21:26:03.568Z,16.13
2018-08-24T21:28:35.718Z,16.07
2018-08-24T21:31:08.413Z,16.03
2018-08-24T21:33:40.540Z,15.96
2018-08-24T21:36:12.844Z,15.92
2018-08-24T21:38:44.921Z,15.96
2018-08-24T21:41:17.138Z,15.87
2018-08-24T21:43:50.024Z,15.88
2018-08-24T21:46:22.134Z,15.82
2018-08-24T21:48:54.253Z,15.81
2018-08-24T21:51:26.326Z,15.76
2018-08-24T21:53:58.785Z,15.77
2018-08-24T21:56:31.009Z,15.75
2018-08-24T21:59:03.147Z,15.73
2018-08-24T22:01:35.345Z,15.65
2018-08-24T22:04:07.419Z,15.63
2018-08-24T22:06:39.582Z,15.68
2018-08-24T22:09:11.751Z,15.65
2018-08-24T22:11:43.848Z,15.58
2018-08-24T22:14:15.980Z,15.54
2018-08-24T22:16:54.867Z,15.53
2018-08-24T22:19:27.024Z,15.53
2018-08-24T22:21:59.161Z,15.52
2018-08-24T22:24:31.331Z,15.54
2018-08-24T22:27:03.765Z,15.47
2018-08-24T22:29:35.827Z,15.48
2018-08-24T22:32:07.932Z,15.45
2018-08-24T22:34:40.042Z,15.39
2018-08-24T22:37:12.191Z,15.31
2018-08-24T22:39:44.499Z,15.32
2018-08-24T22:42:16.584Z,15.29
2018-08-24T22:44:48.672Z,15.20
2018-08-24T22:47:20.768Z,15.26
2018-08-24T22:49:52.910Z,15.18
2018-08-24T22:52:25.039Z,15.13
2018-08-24T22:54:57.162Z,15.07
2018-08-24T22:57:29.337Z,15.06
2018-08-24T23:00:01.445Z,15.03
2018-08-24T23:02:34.081Z,14.93
2018-08-24T23:05:06.236Z,14.88
2018-08-24T23:07:38.318Z,14.85
2018-08-24T23:10:10.429Z,14.79
2018-08-24T23:12:42.702Z,14.70
2018-08-24T23:15:14.858Z,14.62
2018-08-24T23:17:46.962Z,14.46
2018-08-24T23:20:19.053Z,14.32
2018-08-24T23:22:51.148Z,14.24
2018-08-24T23:25:23.248Z,14.15
2018-08-24T23:27:55.350Z,14.07
2018-08-24T23:30:27.581Z,13.99
2018-08-24T23:32:59.689Z,13.94
2018-08-24T23:35:31.912Z,13.85
2018-08-24T23:38:04.046Z,13.85
2018-08-24T23:40:36.120Z,13.90
2018-08-24T23:43:08.197Z,13.83
2018-08-24T23:45:40.340Z,13.70
2018-08-24T23:48:12.415Z,13.60
2018-08-24T23:50:44.502Z,13.60
2018-08-24T23:53:16.628Z,13.53
2018-08-24T23:55:48.760Z,13.45
2018-08-24T23:58:20.827Z,13.45
